sensor_id;sensor_type;location;lat;lon;timestamp;P1;durP1;ratioP1;P2;durP2;ratioP2
34876;SDS011;21086;44.780;17.194;2023-04-15T00:02:15;13.77;;;8.70;;
34876;SDS011;21086;44.780;17.194;2023-04-15T00:04:44;11.43;;;9.18;;
34876;SDS011;21086;44.780;17.194;2023-04-15T00:07:12;11.10;;;8.02;;
34876;SDS011;21086;44.780;17.194;2023-04-15T00:09:40;10.40;;;7.70;;
34876;SDS011;21086;44.780;17.194;2023-04-15T00:12:07;10.05;;;6.97;;
34876;SDS011;21086;44.780;17.194;2023-04-15T00:14:35;14.65;;;10.10;;
34876;SDS011;21086;44.780;17.194;2023-04-15T00:19:37;12.85;;;8.77;;
34876;SDS011;21086;44.780;17.194;2023-04-15T00:22:06;14.02;;;9.80;;
34876;SDS011;21086;44.780;17.194;2023-04-15T00:30:50;13.77;;;8.07;;
34876;SDS011;21086;44.780;17.194;2023-04-15T00:33:18;12.70;;;8.52;;
34876;SDS011;21086;44.780;17.194;2023-04-15T00:35:45;13.57;;;9.15;;
34876;SDS011;21086;44.780;17.194;2023-04-15T00:38:12;12.90;;;8.73;;
34876;SDS011;21086;44.780;17.194;2023-04-15T00:40:39;12.88;;;8.50;;
34876;SDS011;21086;44.780;17.194;2023-04-15T00:43:06;12.85;;;8.13;;
34876;SDS011;21086;44.780;17.194;2023-04-15T00:51:04;12.70;;;8.35;;
34876;SDS011;21086;44.780;17.194;2023-04-15T00:53:32;12.15;;;8.73;;
34876;SDS011;21086;44.780;17.194;2023-04-15T00:59:01;15.10;;;9.32;;
34876;SDS011;21086;44.780;17.194;2023-04-15T01:01:28;13.05;;;8.52;;
34876;SDS011;21086;44.780;17.194;2023-04-15T01:03:56;12.32;;;8.35;;
34876;SDS011;21086;44.780;17.194;2023-04-15T01:06:24;11.65;;;7.70;;
34876;SDS011;21086;44.780;17.194;2023-04-15T01:08:53;12.55;;;8.25;;
34876;SDS011;21086;44.780;17.194;2023-04-15T01:11:22;14.45;;;9.55;;
34876;SDS011;21086;44.780;17.194;2023-04-15T01:13:50;13.05;;;9.73;;
34876;SDS011;21086;44.780;17.194;2023-04-15T01:16:18;11.90;;;8.52;;
34876;SDS011;21086;44.780;17.194;2023-04-15T01:18:46;11.77;;;7.70;;
34876;SDS011;21086;44.780;17.194;2023-04-15T01:21:13;11.63;;;7.45;;
34876;SDS011;21086;44.780;17.194;2023-04-15T01:23:40;10.93;;;6.13;;
34876;SDS011;21086;44.780;17.194;2023-04-15T01:26:08;9.25;;;5.60;;
34876;SDS011;21086;44.780;17.194;2023-04-15T01:28:36;8.43;;;6.13;;
34876;SDS011;21086;44.780;17.194;2023-04-15T01:31:04;10.20;;;7.65;;
34876;SDS011;21086;44.780;17.194;2023-04-15T01:33:37;17.80;;;9.40;;
34876;SDS011;21086;44.780;17.194;2023-04-15T01:36:05;9.65;;;6.03;;
34876;SDS011;21086;44.780;17.194;2023-04-15T01:38:34;7.93;;;5.55;;
34876;SDS011;21086;44.780;17.194;2023-04-15T01:41:01;7.97;;;5.35;;
34876;SDS011;21086;44.780;17.194;2023-04-15T01:43:30;9.68;;;5.72;;
34876;SDS011;21086;44.780;17.194;2023-04-15T01:45:57;9.68;;;5.82;;
34876;SDS011;21086;44.780;17.194;2023-04-15T01:48:24;6.97;;;4.55;;
34876;SDS011;21086;44.780;17.194;2023-04-15T01:56:11;6.22;;;3.58;;
34876;SDS011;21086;44.780;17.194;2023-04-15T02:01:29;7.22;;;2.80;;
34876;SDS011;21086;44.780;17.194;2023-04-15T02:06:45;4.88;;;3.20;;
34876;SDS011;21086;44.780;17.194;2023-04-15T02:09:12;5.03;;;3.13;;
34876;SDS011;21086;44.780;17.194;2023-04-15T02:11:40;5.57;;;3.58;;
34876;SDS011;21086;44.780;17.194;2023-04-15T02:14:07;5.05;;;3.55;;
34876;SDS011;21086;44.780;17.194;2023-04-15T02:16:34;4.65;;;3.10;;
34876;SDS011;21086;44.780;17.194;2023-04-15T02:19:01;3.65;;;3.20;;
34876;SDS011;21086;44.780;17.194;2023-04-15T02:21:29;5.88;;;2.92;;
34876;SDS011;21086;44.780;17.194;2023-04-15T02:23:56;5.22;;;3.70;;
34876;SDS011;21086;44.780;17.194;2023-04-15T02:26:23;6.05;;;3.40;;
34876;SDS011;21086;44.780;17.194;2023-04-15T02:28:50;3.53;;;3.08;;
34876;SDS011;21086;44.780;17.194;2023-04-15T02:31:17;4.40;;;3.08;;
34876;SDS011;21086;44.780;17.194;2023-04-15T02:33:44;4.10;;;2.80;;
34876;SDS011;21086;44.780;17.194;2023-04-15T02:38:57;5.50;;;3.95;;
34876;SDS011;21086;44.780;17.194;2023-04-15T02:41:24;4.90;;;3.20;;
34876;SDS011;21086;44.780;17.194;2023-04-15T02:43:53;5.28;;;3.10;;
34876;SDS011;21086;44.780;17.194;2023-04-15T02:46:20;4.88;;;3.10;;
34876;SDS011;21086;44.780;17.194;2023-04-15T02:48:48;4.50;;;3.03;;
34876;SDS011;21086;44.780;17.194;2023-04-15T02:51:17;4.68;;;3.20;;
34876;SDS011;21086;44.780;17.194;2023-04-15T03:10:17;2.42;;;1.80;;
34876;SDS011;21086;44.780;17.194;2023-04-15T03:12:44;3.95;;;2.30;;
34876;SDS011;21086;44.780;17.194;2023-04-15T03:25:54;4.40;;;2.90;;
34876;SDS011;21086;44.780;17.194;2023-04-15T03:28:23;4.85;;;2.88;;
34876;SDS011;21086;44.780;17.194;2023-04-15T03:30:50;5.53;;;3.85;;
34876;SDS011;21086;44.780;17.194;2023-04-15T03:33:38;4.65;;;3.20;;
34876;SDS011;21086;44.780;17.194;2023-04-15T03:36:05;6.45;;;4.05;;
34876;SDS011;21086;44.780;17.194;2023-04-15T03:38:32;5.93;;;3.70;;
34876;SDS011;21086;44.780;17.194;2023-04-15T03:40:59;4.68;;;3.50;;
34876;SDS011;21086;44.780;17.194;2023-04-15T03:43:26;4.18;;;3.10;;
34876;SDS011;21086;44.780;17.194;2023-04-15T03:48:28;3.95;;;2.55;;
34876;SDS011;21086;44.780;17.194;2023-04-15T03:50:55;3.00;;;2.17;;
34876;SDS011;21086;44.780;17.194;2023-04-15T03:53:23;3.65;;;2.17;;
34876;SDS011;21086;44.780;17.194;2023-04-15T03:55:51;5.75;;;2.63;;
34876;SDS011;21086;44.780;17.194;2023-04-15T03:58:19;3.20;;;2.55;;
34876;SDS011;21086;44.780;17.194;2023-04-15T04:09:09;6.78;;;3.80;;
34876;SDS011;21086;44.780;17.194;2023-04-15T04:11:36;5.72;;;4.28;;
34876;SDS011;21086;44.780;17.194;2023-04-15T04:14:04;7.45;;;5.78;;
34876;SDS011;21086;44.780;17.194;2023-04-15T04:16:30;6.65;;;5.50;;
34876;SDS011;21086;44.780;17.194;2023-04-15T04:18:57;7.88;;;6.25;;
34876;SDS011;21086;44.780;17.194;2023-04-15T04:21:25;6.25;;;4.55;;
34876;SDS011;21086;44.780;17.194;2023-04-15T04:23:52;6.45;;;5.35;;
34876;SDS011;21086;44.780;17.194;2023-04-15T04:26:19;6.80;;;4.88;;
34876;SDS011;21086;44.780;17.194;2023-04-15T04:28:46;7.53;;;4.70;;
34876;SDS011;21086;44.780;17.194;2023-04-15T04:31:13;6.78;;;4.78;;
34876;SDS011;21086;44.780;17.194;2023-04-15T04:33:40;6.97;;;4.60;;
34876;SDS011;21086;44.780;17.194;2023-04-15T04:36:07;6.72;;;5.40;;
34876;SDS011;21086;44.780;17.194;2023-04-15T04:38:34;5.75;;;4.70;;
34876;SDS011;21086;44.780;17.194;2023-04-15T04:41:01;8.68;;;6.88;;
34876;SDS011;21086;44.780;17.194;2023-04-15T04:43:28;7.65;;;6.28;;
34876;SDS011;21086;44.780;17.194;2023-04-15T04:45:55;8.60;;;6.05;;
34876;SDS011;21086;44.780;17.194;2023-04-15T04:48:23;7.90;;;5.38;;
34876;SDS011;21086;44.780;17.194;2023-04-15T04:50:50;8.18;;;5.78;;
34876;SDS011;21086;44.780;17.194;2023-04-15T04:53:17;8.23;;;5.18;;
34876;SDS011;21086;44.780;17.194;2023-04-15T04:55:44;8.85;;;5.35;;
34876;SDS011;21086;44.780;17.194;2023-04-15T04:58:11;7.90;;;5.00;;
34876;SDS011;21086;44.780;17.194;2023-04-15T05:00:39;5.43;;;3.97;;
34876;SDS011;21086;44.780;17.194;2023-04-15T05:03:07;6.15;;;4.55;;
34876;SDS011;21086;44.780;17.194;2023-04-15T05:05:35;6.28;;;4.00;;
34876;SDS011;21086;44.780;17.194;2023-04-15T05:11:07;7.70;;;4.10;;
34876;SDS011;21086;44.780;17.194;2023-04-15T05:13:34;6.50;;;4.30;;
34876;SDS011;21086;44.780;17.194;2023-04-15T05:19:16;6.95;;;4.32;;
34876;SDS011;21086;44.780;17.194;2023-04-15T05:21:44;7.25;;;4.45;;
34876;SDS011;21086;44.780;17.194;2023-04-15T05:24:11;8.18;;;5.90;;
34876;SDS011;21086;44.780;17.194;2023-04-15T05:26:38;10.93;;;8.40;;
34876;SDS011;21086;44.780;17.194;2023-04-15T05:29:08;11.80;;;9.40;;
34876;SDS011;21086;44.780;17.194;2023-04-15T05:31:35;11.93;;;7.90;;
34876;SDS011;21086;44.780;17.194;2023-04-15T05:34:02;11.98;;;7.93;;
34876;SDS011;21086;44.780;17.194;2023-04-15T05:36:30;13.70;;;9.75;;
34876;SDS011;21086;44.780;17.194;2023-04-15T05:44:18;11.50;;;8.93;;
34876;SDS011;21086;44.780;17.194;2023-04-15T05:49:21;11.60;;;8.93;;
34876;SDS011;21086;44.780;17.194;2023-04-15T05:54:24;15.60;;;7.00;;
34876;SDS011;21086;44.780;17.194;2023-04-15T05:56:53;8.70;;;6.45;;
34876;SDS011;21086;44.780;17.194;2023-04-15T05:59:21;8.18;;;6.35;;
34876;SDS011;21086;44.780;17.194;2023-04-15T06:01:48;9.75;;;7.60;;
34876;SDS011;21086;44.780;17.194;2023-04-15T06:04:17;10.20;;;7.70;;
34876;SDS011;21086;44.780;17.194;2023-04-15T06:09:19;9.07;;;6.80;;
34876;SDS011;21086;44.780;17.194;2023-04-15T06:11:48;19.63;;;11.23;;
34876;SDS011;21086;44.780;17.194;2023-04-15T06:14:15;8.38;;;6.57;;
34876;SDS011;21086;44.780;17.194;2023-04-15T06:22:21;10.73;;;6.47;;
34876;SDS011;21086;44.780;17.194;2023-04-15T06:24:49;12.10;;;8.57;;
34876;SDS011;21086;44.780;17.194;2023-04-15T06:27:16;21.50;;;15.50;;
34876;SDS011;21086;44.780;17.194;2023-04-15T06:29:44;108.75;;;60.17;;
34876;SDS011;21086;44.780;17.194;2023-04-15T06:32:11;34.30;;;23.92;;
34876;SDS011;21086;44.780;17.194;2023-04-15T06:40:00;7.63;;;5.45;;
34876;SDS011;21086;44.780;17.194;2023-04-15T06:45:02;8.23;;;5.78;;
34876;SDS011;21086;44.780;17.194;2023-04-15T06:47:29;7.32;;;5.43;;
34876;SDS011;21086;44.780;17.194;2023-04-15T06:49:56;9.32;;;5.55;;
34876;SDS011;21086;44.780;17.194;2023-04-15T06:55:09;12.07;;;6.70;;
34876;SDS011;21086;44.780;17.194;2023-04-15T06:57:36;13.45;;;8.55;;
34876;SDS011;21086;44.780;17.194;2023-04-15T07:00:03;15.93;;;8.98;;
34876;SDS011;21086;44.780;17.194;2023-04-15T07:02:32;13.00;;;9.40;;
34876;SDS011;21086;44.780;17.194;2023-04-15T07:07:35;24.13;;;11.27;;
34876;SDS011;21086;44.780;17.194;2023-04-15T07:10:02;18.50;;;9.88;;
34876;SDS011;21086;44.780;17.194;2023-04-15T07:12:30;23.20;;;10.38;;
34876;SDS011;21086;44.780;17.194;2023-04-15T07:14:57;16.27;;;9.32;;
34876;SDS011;21086;44.780;17.194;2023-04-15T07:17:25;12.20;;;8.02;;
34876;SDS011;21086;44.780;17.194;2023-04-15T07:19:52;9.75;;;6.93;;
34876;SDS011;21086;44.780;17.194;2023-04-15T07:22:20;9.90;;;6.35;;
34876;SDS011;21086;44.780;17.194;2023-04-15T07:24:47;9.75;;;5.13;;
34876;SDS011;21086;44.780;17.194;2023-04-15T07:27:14;6.95;;;4.10;;
34876;SDS011;21086;44.780;17.194;2023-04-15T07:29:43;6.20;;;3.95;;
34876;SDS011;21086;44.780;17.194;2023-04-15T07:32:11;6.97;;;4.97;;
34876;SDS011;21086;44.780;17.194;2023-04-15T07:34:38;6.00;;;4.40;;
34876;SDS011;21086;44.780;17.194;2023-04-15T07:37:07;9.52;;;4.88;;
34876;SDS011;21086;44.780;17.194;2023-04-15T07:39:35;9.95;;;4.63;;
34876;SDS011;21086;44.780;17.194;2023-04-15T07:42:02;5.30;;;3.80;;
34876;SDS011;21086;44.780;17.194;2023-04-15T07:44:29;7.80;;;4.30;;
34876;SDS011;21086;44.780;17.194;2023-04-15T07:46:56;5.90;;;3.25;;
34876;SDS011;21086;44.780;17.194;2023-04-15T07:49:23;3.63;;;2.55;;
34876;SDS011;21086;44.780;17.194;2023-04-15T07:51:50;4.85;;;2.33;;
34876;SDS011;21086;44.780;17.194;2023-04-15T07:54:17;3.65;;;1.27;;
34876;SDS011;21086;44.780;17.194;2023-04-15T07:56:44;2.83;;;2.15;;
34876;SDS011;21086;44.780;17.194;2023-04-15T07:59:11;4.00;;;2.28;;
34876;SDS011;21086;44.780;17.194;2023-04-15T08:01:38;1.65;;;0.90;;
34876;SDS011;21086;44.780;17.194;2023-04-15T08:04:05;1.98;;;0.50;;
34876;SDS011;21086;44.780;17.194;2023-04-15T08:06:33;0.68;;;0.30;;
34876;SDS011;21086;44.780;17.194;2023-04-15T08:09:00;0.50;;;0.35;;
34876;SDS011;21086;44.780;17.194;2023-04-15T08:11:28;0.68;;;0.30;;
34876;SDS011;21086;44.780;17.194;2023-04-15T08:13:55;1.23;;;0.40;;
34876;SDS011;21086;44.780;17.194;2023-04-15T08:16:23;0.50;;;0.30;;
34876;SDS011;21086;44.780;17.194;2023-04-15T08:18:51;1.98;;;0.40;;
34876;SDS011;21086;44.780;17.194;2023-04-15T08:21:19;0.40;;;0.30;;
34876;SDS011;21086;44.780;17.194;2023-04-15T08:23:47;0.70;;;0.50;;
34876;SDS011;21086;44.780;17.194;2023-04-15T08:26:16;1.10;;;0.30;;
34876;SDS011;21086;44.780;17.194;2023-04-15T08:28:44;1.95;;;0.30;;
34876;SDS011;21086;44.780;17.194;2023-04-15T08:31:12;1.75;;;0.68;;
34876;SDS011;21086;44.780;17.194;2023-04-15T08:33:41;0.68;;;0.40;;
34876;SDS011;21086;44.780;17.194;2023-04-15T08:36:09;0.73;;;0.30;;
34876;SDS011;21086;44.780;17.194;2023-04-15T08:38:36;2.08;;;0.40;;
34876;SDS011;21086;44.780;17.194;2023-04-15T08:41:04;1.92;;;0.35;;
34876;SDS011;21086;44.780;17.194;2023-04-15T08:43:39;0.63;;;0.32;;
34876;SDS011;21086;44.780;17.194;2023-04-15T08:46:14;0.73;;;0.35;;
34876;SDS011;21086;44.780;17.194;2023-04-15T08:48:41;0.68;;;0.30;;
34876;SDS011;21086;44.780;17.194;2023-04-15T08:51:10;0.90;;;0.38;;
34876;SDS011;21086;44.780;17.194;2023-04-15T08:53:44;2.10;;;0.50;;
34876;SDS011;21086;44.780;17.194;2023-04-15T08:56:13;1.02;;;0.30;;
34876;SDS011;21086;44.780;17.194;2023-04-15T08:58:45;0.68;;;0.43;;
34876;SDS011;21086;44.780;17.194;2023-04-15T09:01:12;4.57;;;0.32;;
34876;SDS011;21086;44.780;17.194;2023-04-15T09:03:40;0.35;;;0.28;;
34876;SDS011;21086;44.780;17.194;2023-04-15T09:06:08;4.00;;;0.40;;
34876;SDS011;21086;44.780;17.194;2023-04-15T09:08:35;0.55;;;0.32;;
34876;SDS011;21086;44.780;17.194;2023-04-15T09:11:02;2.03;;;0.22;;
34876;SDS011;21086;44.780;17.194;2023-04-15T09:13:29;0.73;;;0.22;;
34876;SDS011;21086;44.780;17.194;2023-04-15T09:15:57;0.98;;;0.40;;
34876;SDS011;21086;44.780;17.194;2023-04-15T09:18:30;0.77;;;0.30;;
34876;SDS011;21086;44.780;17.194;2023-04-15T09:21:05;0.50;;;0.30;;
34876;SDS011;21086;44.780;17.194;2023-04-15T09:23:38;1.33;;;0.40;;
34876;SDS011;21086;44.780;17.194;2023-04-15T09:26:07;1.05;;;0.43;;
34876;SDS011;21086;44.780;17.194;2023-04-15T09:28:40;0.85;;;0.43;;
34876;SDS011;21086;44.780;17.194;2023-04-15T09:31:08;2.40;;;0.40;;
34876;SDS011;21086;44.780;17.194;2023-04-15T09:33:36;0.68;;;0.30;;
34876;SDS011;21086;44.780;17.194;2023-04-15T09:36:21;0.90;;;0.40;;
34876;SDS011;21086;44.780;17.194;2023-04-15T09:38:54;0.63;;;0.22;;
34876;SDS011;21086;44.780;17.194;2023-04-15T09:41:25;0.93;;;0.40;;
34876;SDS011;21086;44.780;17.194;2023-04-15T09:43:53;0.43;;;0.20;;
34876;SDS011;21086;44.780;17.194;2023-04-15T09:46:25;1.92;;;0.40;;
34876;SDS011;21086;44.780;17.194;2023-04-15T09:49:08;1.92;;;0.40;;
34876;SDS011;21086;44.780;17.194;2023-04-15T09:51:36;1.20;;;0.30;;
34876;SDS011;21086;44.780;17.194;2023-04-15T09:54:03;0.30;;;0.17;;
34876;SDS011;21086;44.780;17.194;2023-04-15T09:56:33;1.55;;;0.55;;
34876;SDS011;21086;44.780;17.194;2023-04-15T09:59:04;0.28;;;0.20;;
34876;SDS011;21086;44.780;17.194;2023-04-15T10:01:32;0.10;;;0.10;;
34876;SDS011;21086;44.780;17.194;2023-04-15T10:04:01;0.73;;;0.20;;
34876;SDS011;21086;44.780;17.194;2023-04-15T10:06:30;0.68;;;0.30;;
34876;SDS011;21086;44.780;17.194;2023-04-15T10:08:59;0.73;;;0.43;;
34876;SDS011;21086;44.780;17.194;2023-04-15T10:11:27;0.28;;;0.20;;
34876;SDS011;21086;44.780;17.194;2023-04-15T10:13:57;0.38;;;0.20;;
34876;SDS011;21086;44.780;17.194;2023-04-15T10:16:25;0.57;;;0.10;;
34876;SDS011;21086;44.780;17.194;2023-04-15T10:18:56;0.20;;;0.10;;
34876;SDS011;21086;44.780;17.194;2023-04-15T10:21:28;0.68;;;0.35;;
34876;SDS011;21086;44.780;17.194;2023-04-15T10:23:56;0.63;;;0.28;;
34876;SDS011;21086;44.780;17.194;2023-04-15T10:26:23;1.25;;;0.30;;
34876;SDS011;21086;44.780;17.194;2023-04-15T10:28:53;1.15;;;0.40;;
34876;SDS011;21086;44.780;17.194;2023-04-15T10:31:20;0.75;;;0.38;;
34876;SDS011;21086;44.780;17.194;2023-04-15T10:33:48;1.33;;;0.28;;
34876;SDS011;21086;44.780;17.194;2023-04-15T10:36:16;0.45;;;0.25;;
34876;SDS011;21086;44.780;17.194;2023-04-15T10:38:44;0.40;;;0.20;;
34876;SDS011;21086;44.780;17.194;2023-04-15T10:41:17;1.00;;;0.60;;
34876;SDS011;21086;44.780;17.194;2023-04-15T10:44:00;0.95;;;0.60;;
34876;SDS011;21086;44.780;17.194;2023-04-15T10:46:40;1.20;;;0.60;;
34876;SDS011;21086;44.780;17.194;2023-04-15T10:49:10;1.25;;;0.80;;
34876;SDS011;21086;44.780;17.194;2023-04-15T10:51:48;0.20;;;0.17;;
34876;SDS011;21086;44.780;17.194;2023-04-15T10:57:06;0.63;;;0.32;;
34876;SDS011;21086;44.780;17.194;2023-04-15T10:59:35;1.33;;;0.50;;
34876;SDS011;21086;44.780;17.194;2023-04-15T11:02:06;0.95;;;0.30;;
34876;SDS011;21086;44.780;17.194;2023-04-15T11:10:50;1.20;;;0.47;;
34876;SDS011;21086;44.780;17.194;2023-04-15T11:12:55;1.38;;;0.60;;
34876;SDS011;21086;44.780;17.194;2023-04-15T11:15:31;1.73;;;0.70;;
34876;SDS011;21086;44.780;17.194;2023-04-15T11:20:36;0.60;;;0.20;;
34876;SDS011;21086;44.780;17.194;2023-04-15T11:23:11;0.70;;;0.40;;
34876;SDS011;21086;44.780;17.194;2023-04-15T11:25:41;1.38;;;0.63;;
34876;SDS011;21086;44.780;17.194;2023-04-15T11:28:10;2.28;;;0.80;;
34876;SDS011;21086;44.780;17.194;2023-04-15T11:30:38;0.90;;;0.50;;
34876;SDS011;21086;44.780;17.194;2023-04-15T11:33:07;3.28;;;1.25;;
34876;SDS011;21086;44.780;17.194;2023-04-15T11:35:35;2.55;;;1.42;;
34876;SDS011;21086;44.780;17.194;2023-04-15T11:38:02;2.78;;;1.50;;
34876;SDS011;21086;44.780;17.194;2023-04-15T11:40:32;3.58;;;2.17;;
34876;SDS011;21086;44.780;17.194;2023-04-15T11:45:49;1.40;;;0.93;;
34876;SDS011;21086;44.780;17.194;2023-04-15T11:48:19;2.22;;;1.33;;
34876;SDS011;21086;44.780;17.194;2023-04-15T11:53:23;0.77;;;0.30;;
34876;SDS011;21086;44.780;17.194;2023-04-15T11:56:02;0.63;;;0.40;;
34876;SDS011;21086;44.780;17.194;2023-04-15T11:58:29;1.63;;;0.80;;
34876;SDS011;21086;44.780;17.194;2023-04-15T12:00:57;0.70;;;0.40;;
34876;SDS011;21086;44.780;17.194;2023-04-15T12:06:19;0.73;;;0.50;;
34876;SDS011;21086;44.780;17.194;2023-04-15T12:14:14;5.30;;;2.28;;
34876;SDS011;21086;44.780;17.194;2023-04-15T12:16:52;2.40;;;1.42;;
34876;SDS011;21086;44.780;17.194;2023-04-15T12:19:33;4.50;;;2.38;;
34876;SDS011;21086;44.780;17.194;2023-04-15T12:22:07;10.20;;;3.15;;
34876;SDS011;21086;44.780;17.194;2023-04-15T12:24:36;4.47;;;2.42;;
34876;SDS011;21086;44.780;17.194;2023-04-15T12:27:07;5.63;;;3.08;;
34876;SDS011;21086;44.780;17.194;2023-04-15T12:29:37;4.28;;;2.17;;
34876;SDS011;21086;44.780;17.194;2023-04-15T12:34:40;2.95;;;1.75;;
34876;SDS011;21086;44.780;17.194;2023-04-15T12:37:10;4.97;;;2.03;;
34876;SDS011;21086;44.780;17.194;2023-04-15T12:39:42;4.65;;;1.85;;
34876;SDS011;21086;44.780;17.194;2023-04-15T12:42:10;2.25;;;1.58;;
34876;SDS011;21086;44.780;17.194;2023-04-15T12:44:37;4.85;;;2.50;;
34876;SDS011;21086;44.780;17.194;2023-04-15T12:47:05;1.23;;;0.63;;
34876;SDS011;21086;44.780;17.194;2023-04-15T12:49:33;1.40;;;0.40;;
34876;SDS011;21086;44.780;17.194;2023-04-15T12:52:01;0.75;;;0.40;;
34876;SDS011;21086;44.780;17.194;2023-04-15T12:54:28;2.40;;;0.70;;
34876;SDS011;21086;44.780;17.194;2023-04-15T12:56:57;1.17;;;0.63;;
34876;SDS011;21086;44.780;17.194;2023-04-15T12:59:24;1.05;;;0.57;;
34876;SDS011;21086;44.780;17.194;2023-04-15T13:01:52;1.88;;;1.23;;
34876;SDS011;21086;44.780;17.194;2023-04-15T13:04:20;1.20;;;0.80;;
34876;SDS011;21086;44.780;17.194;2023-04-15T13:06:48;1.42;;;0.73;;
34876;SDS011;21086;44.780;17.194;2023-04-15T13:09:15;0.85;;;0.50;;
34876;SDS011;21086;44.780;17.194;2023-04-15T13:11:42;0.63;;;0.40;;
34876;SDS011;21086;44.780;17.194;2023-04-15T13:14:09;0.77;;;0.25;;
34876;SDS011;21086;44.780;17.194;2023-04-15T13:16:38;0.52;;;0.30;;
34876;SDS011;21086;44.780;17.194;2023-04-15T13:19:06;0.80;;;0.40;;
34876;SDS011;21086;44.780;17.194;2023-04-15T13:21:33;1.48;;;0.70;;
34876;SDS011;21086;44.780;17.194;2023-04-15T13:24:01;0.85;;;0.30;;
34876;SDS011;21086;44.780;17.194;2023-04-15T13:26:30;0.88;;;0.40;;
34876;SDS011;21086;44.780;17.194;2023-04-15T13:28:57;2.33;;;0.50;;
34876;SDS011;21086;44.780;17.194;2023-04-15T13:31:24;0.70;;;0.40;;
34876;SDS011;21086;44.780;17.194;2023-04-15T13:33:52;1.40;;;0.80;;
34876;SDS011;21086;44.780;17.194;2023-04-15T13:36:19;0.98;;;0.30;;
34876;SDS011;21086;44.780;17.194;2023-04-15T13:38:46;1.35;;;0.47;;
34876;SDS011;21086;44.780;17.194;2023-04-15T13:41:16;0.25;;;0.10;;
34876;SDS011;21086;44.780;17.194;2023-04-15T13:43:43;1.38;;;0.40;;
34876;SDS011;21086;44.780;17.194;2023-04-15T13:46:10;3.92;;;0.70;;
34876;SDS011;21086;44.780;17.194;2023-04-15T13:48:38;0.80;;;0.40;;
34876;SDS011;21086;44.780;17.194;2023-04-15T13:51:05;1.63;;;0.45;;
34876;SDS011;21086;44.780;17.194;2023-04-15T13:53:32;2.15;;;0.55;;
34876;SDS011;21086;44.780;17.194;2023-04-15T13:56:07;1.80;;;0.73;;
34876;SDS011;21086;44.780;17.194;2023-04-15T13:58:35;1.60;;;1.25;;
34876;SDS011;21086;44.780;17.194;2023-04-15T14:01:03;1.08;;;0.43;;
34876;SDS011;21086;44.780;17.194;2023-04-15T14:03:35;1.40;;;0.47;;
34876;SDS011;21086;44.780;17.194;2023-04-15T14:06:03;0.40;;;0.30;;
34876;SDS011;21086;44.780;17.194;2023-04-15T14:08:31;1.83;;;0.77;;
34876;SDS011;21086;44.780;17.194;2023-04-15T14:10:58;1.70;;;0.82;;
34876;SDS011;21086;44.780;17.194;2023-04-15T14:13:26;1.13;;;0.80;;
34876;SDS011;21086;44.780;17.194;2023-04-15T14:15:53;1.02;;;0.80;;
34876;SDS011;21086;44.780;17.194;2023-04-15T14:18:20;0.80;;;0.40;;
34876;SDS011;21086;44.780;17.194;2023-04-15T14:20:47;1.05;;;0.52;;
34876;SDS011;21086;44.780;17.194;2023-04-15T14:23:14;1.35;;;0.45;;
34876;SDS011;21086;44.780;17.194;2023-04-15T14:25:41;0.60;;;0.30;;
34876;SDS011;21086;44.780;17.194;2023-04-15T14:28:11;1.05;;;0.38;;
34876;SDS011;21086;44.780;17.194;2023-04-15T14:30:38;2.08;;;0.47;;
34876;SDS011;21086;44.780;17.194;2023-04-15T14:33:05;1.05;;;0.60;;
34876;SDS011;21086;44.780;17.194;2023-04-15T14:35:32;1.45;;;0.70;;
34876;SDS011;21086;44.780;17.194;2023-04-15T14:37:59;0.80;;;0.50;;
34876;SDS011;21086;44.780;17.194;2023-04-15T14:40:26;1.15;;;0.30;;
34876;SDS011;21086;44.780;17.194;2023-04-15T14:42:53;0.63;;;0.40;;
34876;SDS011;21086;44.780;17.194;2023-04-15T14:45:20;0.57;;;0.47;;
34876;SDS011;21086;44.780;17.194;2023-04-15T14:47:47;1.15;;;0.60;;
34876;SDS011;21086;44.780;17.194;2023-04-15T14:50:14;1.70;;;0.80;;
34876;SDS011;21086;44.780;17.194;2023-04-15T14:52:41;2.58;;;1.10;;
34876;SDS011;21086;44.780;17.194;2023-04-15T14:55:08;3.35;;;0.85;;
34876;SDS011;21086;44.780;17.194;2023-04-15T14:57:37;2.03;;;0.93;;
34876;SDS011;21086;44.780;17.194;2023-04-15T15:00:05;0.82;;;0.60;;
34876;SDS011;21086;44.780;17.194;2023-04-15T15:02:33;1.42;;;0.80;;
34876;SDS011;21086;44.780;17.194;2023-04-15T15:05:06;0.68;;;0.60;;
34876;SDS011;21086;44.780;17.194;2023-04-15T15:07:36;1.73;;;1.05;;
34876;SDS011;21086;44.780;17.194;2023-04-15T15:10:05;1.92;;;1.45;;
34876;SDS011;21086;44.780;17.194;2023-04-15T15:12:32;1.98;;;1.27;;
34876;SDS011;21086;44.780;17.194;2023-04-15T15:14:59;1.77;;;1.08;;
34876;SDS011;21086;44.780;17.194;2023-04-15T15:17:33;3.13;;;1.63;;
34876;SDS011;21086;44.780;17.194;2023-04-15T15:20:01;2.55;;;1.38;;
34876;SDS011;21086;44.780;17.194;2023-04-15T15:22:29;4.13;;;2.47;;
34876;SDS011;21086;44.780;17.194;2023-04-15T15:24:56;2.28;;;1.38;;
34876;SDS011;21086;44.780;17.194;2023-04-15T15:27:24;8.80;;;7.68;;
34876;SDS011;21086;44.780;17.194;2023-04-15T15:29:51;2.95;;;2.10;;
34876;SDS011;21086;44.780;17.194;2023-04-15T15:32:19;2.80;;;1.70;;
34876;SDS011;21086;44.780;17.194;2023-04-15T15:34:46;3.22;;;2.50;;
34876;SDS011;21086;44.780;17.194;2023-04-15T15:37:13;3.72;;;2.03;;
34876;SDS011;21086;44.780;17.194;2023-04-15T15:39:40;5.25;;;3.15;;
34876;SDS011;21086;44.780;17.194;2023-04-15T15:42:07;1.65;;;1.00;;
34876;SDS011;21086;44.780;17.194;2023-04-15T15:44:34;1.05;;;0.30;;
34876;SDS011;21086;44.780;17.194;2023-04-15T15:47:04;1.70;;;0.98;;
34876;SDS011;21086;44.780;17.194;2023-04-15T15:49:31;4.53;;;2.83;;
34876;SDS011;21086;44.780;17.194;2023-04-15T15:51:58;9.90;;;6.20;;
34876;SDS011;21086;44.780;17.194;2023-04-15T15:54:26;6.72;;;4.78;;
34876;SDS011;21086;44.780;17.194;2023-04-15T15:56:54;5.90;;;4.05;;
34876;SDS011;21086;44.780;17.194;2023-04-15T15:59:23;17.67;;;10.65;;
34876;SDS011;21086;44.780;17.194;2023-04-15T16:01:53;15.73;;;11.18;;
34876;SDS011;21086;44.780;17.194;2023-04-15T16:04:20;5.22;;;3.75;;
34876;SDS011;21086;44.780;17.194;2023-04-15T16:06:47;5.00;;;3.83;;
34876;SDS011;21086;44.780;17.194;2023-04-15T16:09:14;8.48;;;5.93;;
34876;SDS011;21086;44.780;17.194;2023-04-15T16:11:42;5.10;;;3.63;;
34876;SDS011;21086;44.780;17.194;2023-04-15T16:14:10;3.60;;;2.80;;
34876;SDS011;21086;44.780;17.194;2023-04-15T16:16:39;7.75;;;5.93;;
34876;SDS011;21086;44.780;17.194;2023-04-15T16:19:06;6.45;;;5.60;;
34876;SDS011;21086;44.780;17.194;2023-04-15T16:21:33;6.95;;;4.47;;
34876;SDS011;21086;44.780;17.194;2023-04-15T16:24:00;12.38;;;6.57;;
34876;SDS011;21086;44.780;17.194;2023-04-15T16:26:27;8.75;;;7.25;;
34876;SDS011;21086;44.780;17.194;2023-04-15T16:28:55;14.10;;;11.65;;
34876;SDS011;21086;44.780;17.194;2023-04-15T16:31:21;13.02;;;9.57;;
34876;SDS011;21086;44.780;17.194;2023-04-15T16:33:48;14.18;;;12.05;;
34876;SDS011;21086;44.780;17.194;2023-04-15T16:36:15;18.45;;;14.50;;
34876;SDS011;21086;44.780;17.194;2023-04-15T16:38:43;11.77;;;9.82;;
34876;SDS011;21086;44.780;17.194;2023-04-15T16:41:14;8.80;;;7.22;;
34876;SDS011;21086;44.780;17.194;2023-04-15T16:43:41;6.85;;;5.55;;
34876;SDS011;21086;44.780;17.194;2023-04-15T16:46:08;8.73;;;5.68;;
34876;SDS011;21086;44.780;17.194;2023-04-15T16:48:36;6.40;;;4.63;;
34876;SDS011;21086;44.780;17.194;2023-04-15T16:51:03;6.72;;;5.25;;
34876;SDS011;21086;44.780;17.194;2023-04-15T16:53:30;5.82;;;2.70;;